createdAt,value
2019-01-28T00:02:06.155Z,28.92
2019-01-28T00:04:34.597Z,30.00
2019-01-28T00:07:03.036Z,23.95
2019-01-28T00:09:31.500Z,21.27
2019-01-28T00:11:59.938Z,19.12
2019-01-28T00:14:28.375Z,31.60
2019-01-28T00:16:57.504Z,19.65
2019-01-28T00:19:26.459Z,19.57
2019-01-28T00:21:55.174Z,25.85
2019-01-28T00:24:23.889Z,22.27
2019-01-28T00:26:52.331Z,23.27
2019-01-28T00:29:21.017Z,18.23
2019-01-28T00:31:49.453Z,18.17
2019-01-28T00:34:18.156Z,19.73
2019-01-28T00:36:46.582Z,18.95
2019-01-28T00:39:15.021Z,16.17
2019-01-28T00:41:43.446Z,16.20
2019-01-28T00:44:12.210Z,17.17
2019-01-28T00:46:41.205Z,18.90
2019-01-28T00:49:09.997Z,17.57
2019-01-28T00:51:38.425Z,18.98
2019-01-28T00:54:08.984Z,15.78
2019-01-28T00:56:37.407Z,14.47
2019-01-28T00:59:06.171Z,14.38
2019-01-28T01:01:34.855Z,13.35
2019-01-28T01:04:03.647Z,14.38
2019-01-28T01:06:32.066Z,12.70
2019-01-28T01:09:00.824Z,12.43
2019-01-28T01:11:31.380Z,12.18
2019-01-28T01:14:00.126Z,13.18
2019-01-28T01:16:28.556Z,12.82
2019-01-28T01:18:57.290Z,13.62
2019-01-28T01:21:25.953Z,13.75
2019-01-28T01:23:54.386Z,13.80
2019-01-28T01:26:23.161Z,13.05
2019-01-28T01:28:51.588Z,14.23
2019-01-28T01:31:20.023Z,13.83
2019-01-28T01:33:48.445Z,13.68
2019-01-28T01:36:17.175Z,15.35
2019-01-28T01:38:45.598Z,14.75
2019-01-28T01:41:14.037Z,14.87
2019-01-28T01:43:42.469Z,14.45
2019-01-28T01:46:11.504Z,14.55
2019-01-28T01:48:40.495Z,14.85
2019-01-28T01:51:08.934Z,14.03
2019-01-28T01:53:37.376Z,14.93
2019-01-28T01:56:05.800Z,14.63
2019-01-28T01:58:34.222Z,14.00
2019-01-28T02:01:02.663Z,15.08
2019-01-28T02:03:31.483Z,14.25
2019-01-28T02:06:00.275Z,14.40
2019-01-28T02:08:29.022Z,14.50
2019-01-28T02:10:57.469Z,13.55
2019-01-28T02:13:26.288Z,14.43
2019-01-28T02:15:55.017Z,13.62
2019-01-28T02:18:24.130Z,12.85
2019-01-28T02:20:52.552Z,13.88
2019-01-28T02:23:21.057Z,14.80
2019-01-28T02:25:49.507Z,13.53
2019-01-28T02:28:18.245Z,14.28
2019-01-28T02:30:46.669Z,14.23
2019-01-28T02:33:15.416Z,13.98
2019-01-28T02:35:43.856Z,13.15
2019-01-28T02:38:12.288Z,13.30
2019-01-28T02:40:40.982Z,12.90
2019-01-28T02:43:09.407Z,12.75
2019-01-28T02:45:37.838Z,14.40
2019-01-28T02:48:06.286Z,13.90
2019-01-28T02:50:34.722Z,13.38
2019-01-28T02:53:03.458Z,13.98
2019-01-28T02:55:32.243Z,13.25
2019-01-28T02:58:00.676Z,14.73
2019-01-28T03:00:29.088Z,14.35
2019-01-28T03:02:57.527Z,13.60
2019-01-28T03:05:25.972Z,13.93
2019-01-28T03:07:54.403Z,14.93
2019-01-28T03:10:23.310Z,14.23
2019-01-28T03:12:51.777Z,14.63
2019-01-28T03:15:20.475Z,14.75
2019-01-28T03:17:48.912Z,15.90
2019-01-28T03:20:18.172Z,15.38
2019-01-28T03:22:46.970Z,14.78
2019-01-28T03:25:15.752Z,15.28
2019-01-28T03:27:44.200Z,15.25
2019-01-28T03:30:14.680Z,14.85
2019-01-28T03:32:43.445Z,14.80
2019-01-28T03:35:11.857Z,15.72
2019-01-28T03:37:40.304Z,13.80
2019-01-28T03:40:11.658Z,14.10
2019-01-28T03:42:40.100Z,15.05
2019-01-28T03:45:11.540Z,15.45
2019-01-28T03:47:40.272Z,13.85
2019-01-28T03:50:09.679Z,14.53
2019-01-28T03:52:38.114Z,15.23
2019-01-28T03:55:07.306Z,14.13
2019-01-28T03:57:35.744Z,14.87
2019-01-28T04:00:05.169Z,14.83
2019-01-28T04:02:33.604Z,13.48
2019-01-28T04:05:02.030Z,13.18
2019-01-28T04:07:30.481Z,13.35
2019-01-28T04:09:59.268Z,11.90
2019-01-28T04:12:27.707Z,13.22
2019-01-28T04:14:56.186Z,11.63
2019-01-28T04:17:24.626Z,11.68
2019-01-28T04:19:53.070Z,11.08
2019-01-28T04:22:21.507Z,11.45
2019-01-28T04:24:49.948Z,12.37
2019-01-28T04:27:18.390Z,10.60
2019-01-28T04:29:46.824Z,11.50
2019-01-28T04:32:15.516Z,10.13
2019-01-28T04:34:44.238Z,10.80
2019-01-28T04:37:14.862Z,8.28
2019-01-28T04:39:43.299Z,8.78
2019-01-28T04:42:12.073Z,7.97
2019-01-28T04:44:40.769Z,8.20
2019-01-28T04:47:10.281Z,6.55
2019-01-28T04:49:38.714Z,7.45
2019-01-28T04:52:07.129Z,7.67
2019-01-28T04:54:35.569Z,7.40
2019-01-28T04:57:03.998Z,6.58
2019-01-28T04:59:32.777Z,7.42
2019-01-28T05:02:01.460Z,5.87
2019-01-28T05:04:29.900Z,6.35
2019-01-28T05:06:58.329Z,5.62
2019-01-28T05:09:27.099Z,5.62
2019-01-28T05:11:57.604Z,5.42
2019-01-28T05:14:26.317Z,5.53
2019-01-28T05:16:55.309Z,5.83
2019-01-28T05:19:23.748Z,5.97
2019-01-28T05:21:52.427Z,8.35
2019-01-28T05:24:20.892Z,6.35
2019-01-28T05:26:49.312Z,7.50
2019-01-28T05:29:17.749Z,20.92
2019-01-28T05:31:46.497Z,5.53
2019-01-28T05:34:15.281Z,5.03
2019-01-28T05:36:43.707Z,7.53
2019-01-28T05:39:12.205Z,14.78
2019-01-28T05:41:40.630Z,8.23
2019-01-28T05:44:09.061Z,17.50
2019-01-28T05:46:37.486Z,23.73
2019-01-28T05:49:06.215Z,9.28
2019-01-28T05:51:34.640Z,4.95
2019-01-28T05:54:03.085Z,8.20
2019-01-28T05:56:32.085Z,8.15
2019-01-28T05:59:00.797Z,7.45
2019-01-28T06:01:29.223Z,14.80
2019-01-28T06:03:57.942Z,5.55
2019-01-28T06:06:26.663Z,6.78
2019-01-28T06:08:55.111Z,16.23
2019-01-28T06:11:23.834Z,17.87
2019-01-28T06:13:52.924Z,11.60
2019-01-28T06:16:21.606Z,6.40
2019-01-28T06:18:50.094Z,17.20
2019-01-28T06:21:18.527Z,7.83
2019-01-28T06:23:46.998Z,10.35
2019-01-28T06:26:15.434Z,7.20
2019-01-28T06:28:44.222Z,12.90
2019-01-28T06:31:12.657Z,6.40
2019-01-28T06:33:41.085Z,26.45
2019-01-28T06:36:09.801Z,8.10
2019-01-28T06:38:38.556Z,8.53
2019-01-28T06:41:06.997Z,8.00
2019-01-28T06:43:36.288Z,6.85
2019-01-28T06:46:05.021Z,8.45
2019-01-28T06:48:33.705Z,20.27
2019-01-28T06:51:02.136Z,6.33
2019-01-28T06:53:30.569Z,10.32
2019-01-28T06:55:59.003Z,23.42
2019-01-28T06:58:27.415Z,9.63
2019-01-28T07:00:55.854Z,35.45
2019-01-28T07:03:24.583Z,9.08
2019-01-28T07:05:53.070Z,12.10
2019-01-28T07:08:21.494Z,7.53
2019-01-28T07:10:50.284Z,8.05
2019-01-28T07:13:18.845Z,7.83
2019-01-28T07:15:47.335Z,8.03
2019-01-28T07:18:16.253Z,6.97
2019-01-28T07:20:44.705Z,7.80
2019-01-28T07:23:13.142Z,14.33
2019-01-28T07:25:41.850Z,7.92
2019-01-28T07:28:10.520Z,8.73
2019-01-28T07:30:39.316Z,7.12
2019-01-28T07:33:07.739Z,7.53
2019-01-28T07:35:37.295Z,7.97
2019-01-28T07:38:05.984Z,7.67
2019-01-28T07:40:34.434Z,7.67
2019-01-28T07:43:02.848Z,7.70
2019-01-28T07:45:33.469Z,10.20
2019-01-28T07:48:03.179Z,8.35
2019-01-28T07:50:31.752Z,8.15
2019-01-28T07:53:00.447Z,29.48
2019-01-28T07:55:28.879Z,15.18
2019-01-28T07:57:57.320Z,8.40
2019-01-28T08:00:26.742Z,8.68
2019-01-28T08:02:55.491Z,10.05
2019-01-28T08:05:24.185Z,10.68
2019-01-28T08:07:52.623Z,8.90
2019-01-28T08:10:21.091Z,8.23
2019-01-28T08:12:49.567Z,9.90
2019-01-28T08:15:19.263Z,10.15
2019-01-28T08:17:48.429Z,16.55
2019-01-28T08:20:18.074Z,24.85
2019-01-28T08:22:46.530Z,44.65
2019-01-28T08:25:16.187Z,59.98
2019-01-28T08:27:44.921Z,114.32
2019-01-28T08:30:19.339Z,94.60
2019-01-28T08:32:48.147Z,90.77
2019-01-28T08:35:16.843Z,88.58
2019-01-28T08:37:45.277Z,56.15
2019-01-28T08:40:14.301Z,28.05
2019-01-28T08:42:42.732Z,24.32
2019-01-28T08:45:11.402Z,34.70
2019-01-28T08:47:39.845Z,25.08
2019-01-28T08:50:10.376Z,14.25
2019-01-28T08:52:38.805Z,10.18
2019-01-28T08:55:14.317Z,10.63
2019-01-28T08:57:39.792Z,8.85
2019-01-28T09:00:11.872Z,10.85
2019-01-28T09:05:08.918Z,15.70
2019-01-28T09:07:37.747Z,9.53
2019-01-28T09:10:06.951Z,15.68
2019-01-28T09:12:35.697Z,13.25
2019-01-28T09:15:04.723Z,11.48
2019-01-28T09:17:33.163Z,6.72
2019-01-28T09:20:01.575Z,5.75
2019-01-28T09:22:30.639Z,5.37
2019-01-28T09:24:59.065Z,6.47
2019-01-28T09:27:27.502Z,5.90
2019-01-28T09:29:56.201Z,11.97
2019-01-28T09:32:24.633Z,6.25
2019-01-28T09:34:53.656Z,4.67
2019-01-28T09:37:22.100Z,6.42
2019-01-28T09:39:50.523Z,10.28
2019-01-28T09:42:18.946Z,12.05
2019-01-28T09:44:47.688Z,5.03
2019-01-28T09:47:16.429Z,5.20
2019-01-28T09:49:44.869Z,4.25
2019-01-28T09:52:13.533Z,4.30
2019-01-28T09:54:43.634Z,4.37
2019-01-28T09:57:12.440Z,4.15
2019-01-28T09:59:40.862Z,5.50
2019-01-28T10:02:09.609Z,4.35
2019-01-28T10:04:38.041Z,3.98
2019-01-28T10:07:06.728Z,6.15
2019-01-28T10:09:35.554Z,11.25
2019-01-28T10:12:04.031Z,5.10
2019-01-28T10:14:32.473Z,7.72
2019-01-28T10:17:01.413Z,4.35
2019-01-28T10:19:30.518Z,4.45
2019-01-28T10:21:58.951Z,4.92
2019-01-28T10:24:27.382Z,5.12
2019-01-28T10:26:55.801Z,26.52
2019-01-28T10:29:24.248Z,8.70
2019-01-28T10:31:52.970Z,3.87
2019-01-28T10:34:21.401Z,4.80
2019-01-28T10:36:50.205Z,4.20
2019-01-28T10:39:18.969Z,20.43
2019-01-28T10:41:47.401Z,9.08
2019-01-28T10:44:15.837Z,7.92
2019-01-28T10:46:44.522Z,8.65
2019-01-28T10:49:13.313Z,13.80
2019-01-28T10:51:41.724Z,4.10
2019-01-28T10:54:10.406Z,22.95
2019-01-28T10:56:38.830Z,5.30
2019-01-28T10:59:07.431Z,4.55
2019-01-28T11:01:35.864Z,18.60
2019-01-28T11:04:04.600Z,8.38
2019-01-28T11:06:33.099Z,51.63
2019-01-28T11:09:02.196Z,77.80
2019-01-28T11:11:30.615Z,6.15
2019-01-28T11:13:59.146Z,23.67
2019-01-28T11:16:27.558Z,6.20
2019-01-28T11:18:57.863Z,11.57
2019-01-28T11:21:26.215Z,10.23
2019-01-28T11:23:54.696Z,33.60
2019-01-28T11:26:23.205Z,10.80
2019-01-28T11:28:51.606Z,8.38
2019-01-28T11:31:20.174Z,11.33
2019-01-28T11:33:48.854Z,13.30
2019-01-28T11:36:17.357Z,27.15
2019-01-28T11:38:45.918Z,9.60
2019-01-28T11:41:14.743Z,26.70
2019-01-28T11:43:43.161Z,52.08
2019-01-28T11:46:11.563Z,40.35
2019-01-28T11:48:40.456Z,15.35
2019-01-28T11:51:09.118Z,18.65
2019-01-28T11:53:37.557Z,14.58
2019-01-28T11:56:05.991Z,20.52
2019-01-28T11:58:34.414Z,21.60
2019-01-28T12:01:11.527Z,16.65
2019-01-28T12:03:40.322Z,12.40
2019-01-28T12:06:08.767Z,14.80
2019-01-28T12:13:57.304Z,7.78
2019-01-28T12:16:25.758Z,20.60
2019-01-28T12:18:54.179Z,16.67
2019-01-28T12:21:22.618Z,8.28
2019-01-28T12:23:51.278Z,16.65
2019-01-28T12:26:19.710Z,7.17
2019-01-28T12:28:48.371Z,7.78
2019-01-28T12:31:17.251Z,9.95
2019-01-28T12:33:46.760Z,11.12
2019-01-28T12:36:15.252Z,10.60
2019-01-28T12:38:43.936Z,9.65
2019-01-28T12:41:17.325Z,8.35
2019-01-28T12:43:42.916Z,7.70
2019-01-28T12:46:11.352Z,6.35
2019-01-28T12:48:39.812Z,7.47
2019-01-28T12:51:08.492Z,7.72
2019-01-28T12:53:37.654Z,7.83
2019-01-28T12:56:06.481Z,8.53
2019-01-28T12:58:34.914Z,7.97
2019-01-28T13:01:05.186Z,7.75
2019-01-28T13:03:33.610Z,7.20
2019-01-28T13:06:02.350Z,7.83
2019-01-28T13:08:31.149Z,8.28
2019-01-28T13:10:59.601Z,10.00
2019-01-28T13:13:28.295Z,12.10
2019-01-28T13:15:56.992Z,11.48
2019-01-28T13:18:25.977Z,10.95
2019-01-28T13:20:54.405Z,11.43
2019-01-28T13:23:23.147Z,19.02
2019-01-28T13:25:51.571Z,16.90
2019-01-28T13:28:20.007Z,13.78
2019-01-28T13:30:48.431Z,15.93
2019-01-28T13:33:17.445Z,13.45
2019-01-28T13:35:46.169Z,9.10
2019-01-28T13:38:14.750Z,9.50
2019-01-28T13:40:43.437Z,9.35
2019-01-28T13:43:11.933Z,8.75
2019-01-28T13:45:40.374Z,10.48
2019-01-28T13:48:12.586Z,9.58
2019-01-28T13:50:41.352Z,8.10
2019-01-28T13:53:10.101Z,7.03
2019-01-28T13:55:38.537Z,6.33
2019-01-28T13:58:06.968Z,5.45
2019-01-28T14:00:35.380Z,6.28
2019-01-28T14:03:03.860Z,7.62
2019-01-28T14:05:32.559Z,9.00
2019-01-28T14:08:01.009Z,6.70
2019-01-28T14:10:29.469Z,9.35
2019-01-28T14:12:57.912Z,9.88
2019-01-28T14:15:29.073Z,10.95
2019-01-28T14:17:57.814Z,13.30
2019-01-28T14:20:29.557Z,14.60
2019-01-28T14:22:58.322Z,12.23
2019-01-28T14:25:26.762Z,14.33
2019-01-28T14:27:55.395Z,15.35
2019-01-28T14:30:41.743Z,18.55
2019-01-28T14:33:10.221Z,27.05
2019-01-28T14:35:39.499Z,22.35
2019-01-28T14:38:09.138Z,27.17
2019-01-28T14:40:38.588Z,23.75
2019-01-28T14:43:07.029Z,33.02
2019-01-28T14:45:35.603Z,35.28
2019-01-28T14:48:04.179Z,35.05
2019-01-28T14:50:32.969Z,22.82
2019-01-28T14:53:02.039Z,27.82
2019-01-28T14:55:30.484Z,23.73
2019-01-28T14:57:59.015Z,24.05
2019-01-28T15:00:32.875Z,24.98
2019-01-28T15:03:01.306Z,23.87
2019-01-28T15:05:29.828Z,23.98
2019-01-28T15:07:58.344Z,23.22
2019-01-28T15:10:26.911Z,23.05
2019-01-28T15:12:55.586Z,23.98
2019-01-28T15:15:29.558Z,23.25
2019-01-28T15:18:01.417Z,21.35
2019-01-28T15:20:29.860Z,24.70
2019-01-28T15:22:59.581Z,22.10
2019-01-28T15:25:28.470Z,18.52
2019-01-28T15:27:56.924Z,21.60
2019-01-28T15:30:27.004Z,21.57
2019-01-28T15:32:55.494Z,24.65
2019-01-28T15:35:23.950Z,20.75
2019-01-28T15:37:52.368Z,18.55
2019-01-28T15:40:23.079Z,18.77
2019-01-28T15:42:51.518Z,21.10
2019-01-28T15:45:22.351Z,18.48
2019-01-28T15:47:51.098Z,19.48
2019-01-28T15:50:19.623Z,21.35
2019-01-28T15:52:48.049Z,16.95
2019-01-28T15:55:22.408Z,18.70
2019-01-28T15:57:51.215Z,19.25
2019-01-28T16:00:22.457Z,19.67
2019-01-28T16:02:50.981Z,15.63
2019-01-28T16:05:20.145Z,14.78
2019-01-28T16:07:48.563Z,9.98
2019-01-28T16:10:17.381Z,10.05
2019-01-28T16:12:45.871Z,6.75
2019-01-28T16:15:23.225Z,4.92
2019-01-28T16:17:51.692Z,5.37
2019-01-28T16:20:20.540Z,7.03
2019-01-28T16:22:49.119Z,4.17
2019-01-28T16:25:17.501Z,5.60
2019-01-28T16:27:45.939Z,4.60
2019-01-28T16:30:17.060Z,5.15
2019-01-28T16:32:45.485Z,4.60
2019-01-28T16:35:14.834Z,5.35
2019-01-28T16:37:43.257Z,4.08
2019-01-28T16:40:13.889Z,4.72
2019-01-28T16:42:42.343Z,9.15
2019-01-28T16:45:12.145Z,4.53
2019-01-28T16:47:40.575Z,5.55
2019-01-28T16:50:10.445Z,6.83
2019-01-28T16:52:39.128Z,5.05
2019-01-28T16:55:08.918Z,4.65
2019-01-28T16:57:38.001Z,4.58
2019-01-28T17:00:09.571Z,5.17
2019-01-28T17:02:37.995Z,4.30
2019-01-28T17:05:07.452Z,4.28
2019-01-28T17:07:36.364Z,4.70
2019-01-28T17:10:06.719Z,4.67
2019-01-28T17:12:35.259Z,7.97
2019-01-28T17:15:04.424Z,7.45
2019-01-28T17:17:33.628Z,9.08
2019-01-28T17:20:02.045Z,9.25
2019-01-28T17:22:30.503Z,9.25
2019-01-28T17:24:58.923Z,9.03
2019-01-28T17:27:27.649Z,9.60
2019-01-28T17:29:56.079Z,8.25
2019-01-28T17:32:24.514Z,7.25
2019-01-28T17:34:52.944Z,7.45
2019-01-28T17:37:21.671Z,7.03
2019-01-28T17:39:50.092Z,7.35
2019-01-28T17:42:18.524Z,8.53
2019-01-28T17:44:46.957Z,8.68
2019-01-28T17:47:16.006Z,9.78
2019-01-28T17:49:44.441Z,9.05
2019-01-28T17:52:12.872Z,6.97
2019-01-28T17:54:41.959Z,6.33
2019-01-28T17:57:10.399Z,6.05
2019-01-28T17:59:38.825Z,6.75
2019-01-28T18:02:07.255Z,7.95
2019-01-28T18:04:36.011Z,8.55
2019-01-28T18:07:04.460Z,8.85
2019-01-28T18:09:32.892Z,9.60
2019-01-28T18:12:01.381Z,13.20
2019-01-28T18:14:29.887Z,9.10
2019-01-28T18:16:58.593Z,10.15
2019-01-28T18:19:27.998Z,9.80
2019-01-28T18:21:56.801Z,9.38
2019-01-28T18:24:25.234Z,12.00
2019-01-28T18:26:53.790Z,7.87
2019-01-28T18:29:22.742Z,8.45
2019-01-28T18:31:51.424Z,8.10
2019-01-28T18:34:19.855Z,7.58
2019-01-28T18:36:48.596Z,6.92
2019-01-28T18:39:17.355Z,8.10
2019-01-28T18:41:46.014Z,7.25
2019-01-28T18:44:14.479Z,8.18
2019-01-28T18:46:42.925Z,8.55
2019-01-28T18:49:11.410Z,8.95
2019-01-28T18:51:41.138Z,9.78
2019-01-28T18:54:09.576Z,9.60
2019-01-28T18:56:38.345Z,10.00
2019-01-28T18:59:07.088Z,9.35
2019-01-28T19:01:35.528Z,9.23
2019-01-28T19:04:04.241Z,8.60
2019-01-28T19:06:48.175Z,7.72
2019-01-28T19:09:21.678Z,8.13
2019-01-28T19:12:07.873Z,8.68
2019-01-28T19:14:57.759Z,9.65
2019-01-28T19:17:38.244Z,11.10
2019-01-28T19:20:22.506Z,10.43
2019-01-28T19:22:51.263Z,9.33
2019-01-28T19:25:19.700Z,8.98
2019-01-28T19:27:48.138Z,9.75
2019-01-28T19:30:18.790Z,10.18
2019-01-28T19:32:47.509Z,9.65
2019-01-28T19:35:15.969Z,9.70
2019-01-28T19:37:47.074Z,11.50
2019-01-28T19:40:15.889Z,11.18
2019-01-28T19:42:44.316Z,9.83
2019-01-28T19:45:15.612Z,10.38
2019-01-28T19:47:44.367Z,10.15
2019-01-28T19:50:16.196Z,8.78
2019-01-28T19:52:44.708Z,7.15
2019-01-28T19:55:13.459Z,6.67
2019-01-28T19:57:42.197Z,6.08
2019-01-28T20:00:19.763Z,5.53
2019-01-28T20:02:48.222Z,6.37
2019-01-28T20:05:16.699Z,5.83
2019-01-28T20:07:45.428Z,7.55
2019-01-28T20:10:14.019Z,7.90
2019-01-28T20:12:42.446Z,9.43
2019-01-28T20:15:12.679Z,9.40
2019-01-28T20:17:41.259Z,13.65
2019-01-28T20:20:11.615Z,10.65
2019-01-28T20:22:40.100Z,11.35
2019-01-28T20:25:10.106Z,10.50
2019-01-28T20:27:38.970Z,11.75
2019-01-28T20:30:11.657Z,11.08
2019-01-28T20:32:40.149Z,13.38
2019-01-28T20:35:09.536Z,15.48
2019-01-28T20:37:38.083Z,14.55
2019-01-28T20:40:08.672Z,14.30
2019-01-28T20:42:39.647Z,14.83
2019-01-28T20:45:09.783Z,15.18
2019-01-28T20:47:38.301Z,16.12
2019-01-28T20:50:10.245Z,15.05
2019-01-28T20:52:38.694Z,14.38
2019-01-28T20:55:07.562Z,13.78
2019-01-28T20:57:36.059Z,13.62
2019-01-28T21:00:07.188Z,13.32
2019-01-28T21:02:37.771Z,13.23
2019-01-28T21:05:08.167Z,13.38
2019-01-28T21:07:36.660Z,12.03
2019-01-28T21:10:07.251Z,12.73
2019-01-28T21:12:35.705Z,12.45
2019-01-28T21:15:04.707Z,11.97
2019-01-28T21:17:33.310Z,13.22
2019-01-28T21:20:02.009Z,11.90
2019-01-28T21:22:30.751Z,11.40
2019-01-28T21:24:59.507Z,11.05
2019-01-28T21:27:27.940Z,10.98
2019-01-28T21:29:56.721Z,10.28
2019-01-28T21:32:26.125Z,9.80
2019-01-28T21:34:54.920Z,8.55
2019-01-28T21:37:30.142Z,9.05
2019-01-28T21:39:58.983Z,8.75
2019-01-28T21:42:27.444Z,8.53
2019-01-28T21:44:56.306Z,9.25
2019-01-28T21:47:24.838Z,9.70
2019-01-28T21:49:55.224Z,9.28
2019-01-28T21:52:24.018Z,9.03
2019-01-28T21:54:52.812Z,9.45
2019-01-28T21:57:21.581Z,9.03
2019-01-28T21:59:50.051Z,8.28
2019-01-28T22:02:18.497Z,8.85
2019-01-28T22:04:46.956Z,7.85
2019-01-28T22:07:15.468Z,9.20
2019-01-28T22:09:43.980Z,9.35
2019-01-28T22:12:15.362Z,9.88
2019-01-28T22:14:44.753Z,12.20
2019-01-28T22:17:13.240Z,12.73
2019-01-28T22:19:41.813Z,12.45
2019-01-28T22:22:12.597Z,11.80
2019-01-28T22:24:41.842Z,11.40
2019-01-28T22:27:10.333Z,13.15
2019-01-28T22:29:39.516Z,10.35
2019-01-28T22:32:08.104Z,10.88
2019-01-28T22:34:36.835Z,11.50
2019-01-28T22:37:05.439Z,10.58
2019-01-28T22:39:34.035Z,10.58
2019-01-28T22:42:02.610Z,11.85
2019-01-28T22:44:31.149Z,12.20
2019-01-28T22:46:59.749Z,11.63
2019-01-28T22:49:28.291Z,12.05
2019-01-28T22:51:56.859Z,11.53
2019-01-28T22:54:25.714Z,13.18
2019-01-28T22:56:54.768Z,12.35
2019-01-28T22:59:23.292Z,12.73
2019-01-28T23:01:51.752Z,14.83
2019-01-28T23:04:20.214Z,15.45
2019-01-28T23:06:48.666Z,14.58
2019-01-28T23:09:17.456Z,18.90
2019-01-28T23:11:45.943Z,17.55
2019-01-28T23:14:14.718Z,21.65
2019-01-28T23:16:43.427Z,19.07
2019-01-28T23:19:12.196Z,22.58
2019-01-28T23:21:40.660Z,19.10
2019-01-28T23:24:09.120Z,20.37
2019-01-28T23:26:37.866Z,20.85
2019-01-28T23:29:06.319Z,21.57
2019-01-28T23:31:35.158Z,22.67
2019-01-28T23:34:03.899Z,23.15
2019-01-28T23:36:32.447Z,24.45
2019-01-28T23:39:01.174Z,25.90
2019-01-28T23:41:30.212Z,25.60
2019-01-28T23:43:58.946Z,25.55
2019-01-28T23:46:27.739Z,24.90
2019-01-28T23:48:56.488Z,27.07
2019-01-28T23:51:24.927Z,25.43
2019-01-28T23:53:53.356Z,25.60
2019-01-28T23:56:21.797Z,26.60
2019-01-28T23:58:50.556Z,25.77
